Time;durP1;ratioP1;P1;durP2;ratioP2;P2;SDS_P1;SDS_P2;PMS_P1;PMS_P2;Temp;Humidity;BMP_temperature;BMP_pressure;BME280_temperature;BME280_humidity;BME280_pressure;Samples;Min_cycle;Max_cycle;Signal;HPM_P1;HPM_P2
2023/12/16 00:02:07;;;;;;;1.83;1.73;;;4.20;99.90;;;;;;6323232;22;20208;-91
2023/12/16 00:04:36;;;;;;;3.35;3.13;;;4.20;99.90;;;;;;6298213;22;20179;-92
2023/12/16 00:07:08;;;;;;;4.80;4.40;;;4.20;99.90;;;;;;6300069;22;20416;-89
2023/12/16 00:12:18;;;;;;;1.58;1.58;;;4.20;99.90;;;;;;6306346;22;20228;-86
2023/12/16 00:14:46;;;;;;;3.30;3.10;;;4.20;99.90;;;;;;6326067;22;20172;-89
2023/12/16 00:17:13;;;;;;;4.18;3.75;;;4.20;99.90;;;;;;6305687;22;20174;-87
2023/12/16 00:19:40;;;;;;;3.22;3.08;;;4.10;99.90;;;;;;6305906;22;20182;-90
2023/12/16 00:22:07;;;;;;;2.25;2.15;;;4.20;99.90;;;;;;6324301;22;20185;-90
2023/12/16 00:24:35;;;;;;;1.73;1.63;;;4.20;99.90;;;;;;6325156;22;20183;-90
2023/12/16 00:27:02;;;;;;;2.78;2.13;;;4.30;99.90;;;;;;6235274;22;20185;-87
2023/12/16 00:29:30;;;;;;;1.90;1.80;;;4.20;99.90;;;;;;6144537;23;20178;-89
2023/12/16 00:31:57;;;;;;;1.42;1.33;;;4.40;99.90;;;;;;6147374;22;20170;-92
2023/12/16 00:34:24;;;;;;;2.67;2.50;;;4.30;99.90;;;;;;6162106;22;20346;-90
2023/12/16 00:36:51;;;;;;;1.60;1.50;;;4.20;99.90;;;;;;6172076;23;20206;-86
2023/12/16 00:39:19;;;;;;;4.93;2.80;;;4.50;99.90;;;;;;6198607;23;20372;-89
2023/12/16 00:41:46;;;;;;;2.67;2.58;;;4.30;99.90;;;;;;6169663;23;20165;-90
2023/12/16 00:49:31;;;;;;;2.03;1.92;;;4.30;99.90;;;;;;6169204;22;20205;-86
2023/12/16 00:51:59;;;;;;;0.52;0.52;;;4.50;99.90;;;;;;6128886;23;20190;-89
2023/12/16 00:54:26;;;;;;;1.10;1.10;;;4.30;99.90;;;;;;6139733;23;20198;-90
2023/12/16 00:56:53;;;;;;;1.88;1.77;;;4.50;99.90;;;;;;6156641;22;20186;-89
2023/12/16 00:59:22;;;;;;;2.65;2.47;;;4.30;99.90;;;;;;6132647;22;20202;-88
2023/12/16 01:01:50;;;;;;;2.83;2.72;;;4.40;99.90;;;;;;6133903;23;20174;-87
2023/12/16 01:04:17;;;;;;;0.70;0.70;;;4.70;99.90;;;;;;6133139;23;20186;-84
2023/12/16 01:06:44;;;;;;;4.55;4.22;;;4.40;99.90;;;;;;6131009;23;20204;-86
2023/12/16 01:09:11;;;;;;;1.63;1.52;;;4.60;99.90;;;;;;6155853;22;20193;-89
2023/12/16 01:11:41;;;;;;;0.90;0.90;;;4.40;99.90;;;;;;6132247;23;20178;-87
2023/12/16 01:14:08;;;;;;;1.92;1.83;;;4.50;99.90;;;;;;6263106;22;20261;-90
2023/12/16 01:16:35;;;;;;;1.02;1.02;;;4.40;99.90;;;;;;6324148;22;20200;-87
2023/12/16 01:19:02;;;;;;;5.97;3.15;;;4.60;99.90;;;;;;6324740;22;20194;-83
2023/12/16 01:21:30;;;;;;;1.75;1.55;;;4.30;99.90;;;;;;6322244;22;20182;-86
2023/12/16 01:23:57;;;;;;;1.95;1.80;;;4.40;99.90;;;;;;6328148;22;20204;-88
2023/12/16 01:26:24;;;;;;;5.57;2.33;;;4.50;99.90;;;;;;6330167;22;20202;-89
2023/12/16 01:31:19;;;;;;;0.80;0.80;;;4.40;99.90;;;;;;6148827;23;20200;-85
2023/12/16 01:33:46;;;;;;;4.32;3.53;;;4.40;99.90;;;;;;6171042;23;20154;-84
2023/12/16 01:36:13;;;;;;;0.57;0.57;;;4.40;99.90;;;;;;6145881;23;20189;-88
2023/12/16 01:38:41;;;;;;;3.80;3.55;;;4.50;99.90;;;;;;6160693;22;20221;-86
2023/12/16 01:41:07;;;;;;;2.40;2.28;;;4.40;99.90;;;;;;6170119;23;20173;-89
2023/12/16 01:48:58;;;;;;;4.63;2.22;;;4.40;99.90;;;;;;6165973;22;20282;-88
2023/12/16 01:51:27;;;;;;;2.25;2.15;;;4.40;99.90;;;;;;6160691;22;20541;-87
2023/12/16 01:53:54;;;;;;;2.35;2.25;;;4.50;99.90;;;;;;6153599;22;20265;-86
2023/12/16 01:56:21;;;;;;;0.90;0.90;;;4.40;99.90;;;;;;6136232;22;20220;-87
2023/12/16 01:58:50;;;;;;;3.28;3.08;;;4.50;99.90;;;;;;6158147;22;20259;-87
2023/12/16 02:03:54;;;;;;;3.05;2.75;;;4.50;99.90;;;;;;6168456;23;20242;-86
2023/12/16 02:06:22;;;;;;;0.70;0.70;;;4.50;99.90;;;;;;6175253;23;20185;-86
2023/12/16 02:08:49;;;;;;;3.08;2.63;;;4.40;99.90;;;;;;6169897;22;20466;-85
2023/12/16 02:11:24;;;;;;;1.48;1.30;;;4.50;99.90;;;;;;6154391;22;20192;-85
2023/12/16 02:13:51;;;;;;;1.45;1.35;;;4.50;99.90;;;;;;6163116;22;20212;-90
2023/12/16 02:16:18;;;;;;;0.85;0.85;;;4.40;99.90;;;;;;6140792;23;20237;-90
2023/12/16 02:18:47;;;;;;;3.05;2.85;;;4.40;99.90;;;;;;6173418;23;20233;-85
2023/12/16 02:21:14;;;;;;;2.78;2.58;;;4.40;99.90;;;;;;6170703;23;20206;-84
2023/12/16 02:23:41;;;;;;;2.33;2.22;;;4.30;99.90;;;;;;6166724;23;20173;-90
2023/12/16 02:26:08;;;;;;;2.33;2.20;;;4.40;99.90;;;;;;6164407;23;20208;-91
2023/12/16 02:28:39;;;;;;;1.67;1.58;;;4.40;99.90;;;;;;6137157;23;20178;-90
2023/12/16 02:31:08;;;;;;;2.83;1.73;;;4.30;99.90;;;;;;6137619;23;20204;-87
2023/12/16 02:33:35;;;;;;;2.55;2.45;;;4.30;99.90;;;;;;6139412;23;20365;-89
2023/12/16 02:36:02;;;;;;;4.35;2.65;;;4.30;99.90;;;;;;6165840;23;20177;-88
2023/12/16 02:38:30;;;;;;;2.13;2.03;;;4.40;99.90;;;;;;6148360;23;20402;-85
2023/12/16 02:40:57;;;;;;;2.03;1.92;;;4.40;99.90;;;;;;6166202;22;20467;-87
2023/12/16 02:43:25;;;;;;;3.38;3.17;;;4.20;99.90;;;;;;6148484;22;20223;-86
2023/12/16 02:45:52;;;;;;;1.80;1.70;;;4.40;99.90;;;;;;6178205;23;20178;-90
2023/12/16 02:48:19;;;;;;;2.33;2.22;;;4.30;99.90;;;;;;6152721;23;20233;-86
2023/12/16 02:50:48;;;;;;;2.65;2.38;;;4.50;99.90;;;;;;6175323;23;20185;-87
2023/12/16 02:53:15;;;;;;;1.33;1.33;;;4.50;99.90;;;;;;6143402;23;20170;-85
2023/12/16 02:55:42;;;;;;;0.70;0.70;;;4.50;99.90;;;;;;6142399;23;20474;-89
2023/12/16 02:58:09;;;;;;;7.30;2.00;;;4.60;99.90;;;;;;6164125;23;20197;-83
2023/12/16 03:00:36;;;;;;;8.38;5.53;;;4.60;99.90;;;;;;6161225;23;20216;-89
2023/12/16 03:03:04;;;;;;;4.03;3.67;;;4.70;99.90;;;;;;6135561;23;20208;-86
2023/12/16 03:05:30;;;;;;;2.08;1.98;;;4.60;99.90;;;;;;6132868;23;20200;-84
2023/12/16 03:07:58;;;;;;;3.75;1.17;;;4.60;99.90;;;;;;6159597;23;20198;-85
2023/12/16 03:10:25;;;;;;;1.75;1.65;;;4.70;99.90;;;;;;6135615;23;20549;-85
2023/12/16 03:12:52;;;;;;;1.45;1.35;;;4.50;99.90;;;;;;6161030;23;20184;-86
2023/12/16 03:15:20;;;;;;;6.00;2.42;;;4.60;99.90;;;;;;6160261;23;20197;-88
2023/12/16 03:17:48;;;;;;;1.42;1.42;;;4.60;99.90;;;;;;6164479;23;20227;-89
2023/12/16 03:20:15;;;;;;;2.28;2.03;;;4.60;99.90;;;;;;6170481;23;20214;-87
2023/12/16 03:22:42;;;;;;;4.65;4.35;;;4.60;99.90;;;;;;6177925;23;20178;-88
2023/12/16 03:25:09;;;;;;;2.58;1.33;;;4.60;99.90;;;;;;6177745;23;20162;-86
2023/12/16 03:27:37;;;;;;;3.17;2.92;;;4.70;99.90;;;;;;6177649;23;20169;-87
2023/12/16 03:30:05;;;;;;;1.73;1.63;;;4.60;99.90;;;;;;6140119;23;20391;-85
2023/12/16 03:32:32;;;;;;;1.08;1.08;;;4.70;99.90;;;;;;6160021;23;20177;-86
2023/12/16 03:34:59;;;;;;;2.00;1.90;;;4.60;99.90;;;;;;6159257;23;20201;-86
2023/12/16 03:37:26;;;;;;;2.50;2.38;;;4.70;99.90;;;;;;6160176;23;20177;-84
2023/12/16 03:39:53;;;;;;;2.55;2.40;;;4.70;99.90;;;;;;6133045;23;20253;-84
2023/12/16 03:42:21;;;;;;;2.72;2.55;;;4.70;99.90;;;;;;6158721;23;20184;-84
2023/12/16 03:44:48;;;;;;;2.35;2.05;;;4.60;99.90;;;;;;6159533;23;20260;-85
2023/12/16 03:47:15;;;;;;;2.47;2.35;;;4.70;99.90;;;;;;6132946;23;20549;-85
2023/12/16 03:49:42;;;;;;;1.25;1.25;;;4.90;99.90;;;;;;6132238;23;20174;-86
2023/12/16 03:52:11;;;;;;;2.88;2.67;;;4.60;99.90;;;;;;6132549;23;20181;-84
2023/12/16 03:54:40;;;;;;;0.88;0.88;;;4.80;99.90;;;;;;6159032;23;20166;-87
2023/12/16 03:57:07;;;;;;;19.70;3.15;;;4.70;99.90;;;;;;6158626;23;20485;-87
2023/12/16 03:59:35;;;;;;;1.23;1.23;;;4.80;99.90;;;;;;6160074;23;20500;-86
2023/12/16 04:02:02;;;;;;;2.08;2.00;;;4.90;99.90;;;;;;6135144;23;20178;-84
2023/12/16 04:04:32;;;;;;;3.08;2.97;;;4.80;99.90;;;;;;6134522;23;20182;-83
2023/12/16 04:07:00;;;;;;;0.75;0.75;;;4.80;99.90;;;;;;6160281;23;20367;-85
2023/12/16 04:09:28;;;;;;;2.30;2.03;;;4.80;99.90;;;;;;6134289;23;20241;-86
2023/12/16 04:11:55;;;;;;;1.45;1.45;;;4.90;99.90;;;;;;6160049;23;20181;-84
2023/12/16 04:14:23;;;;;;;1.75;1.65;;;4.80;99.90;;;;;;6137573;23;20177;-88
2023/12/16 04:16:50;;;;;;;0.55;0.55;;;4.80;99.90;;;;;;6139543;23;20170;-89
2023/12/16 04:19:17;;;;;;;2.45;2.35;;;4.80;99.90;;;;;;6170033;23;20208;-90
2023/12/16 04:21:45;;;;;;;2.20;2.10;;;4.70;99.90;;;;;;6170388;23;20534;-88
2023/12/16 04:24:12;;;;;;;1.27;1.25;;;4.90;99.90;;;;;;6168418;23;20410;-90
2023/12/16 04:26:39;;;;;;;3.95;3.75;;;4.90;99.90;;;;;;6142958;23;20274;-84
2023/12/16 04:29:06;;;;;;;4.15;2.22;;;4.80;99.90;;;;;;6149664;22;20218;-89
2023/12/16 04:34:09;;;;;;;3.30;3.10;;;4.90;99.90;;;;;;6133784;22;20705;-89
2023/12/16 04:36:36;;;;;;;1.48;1.38;;;4.90;99.90;;;;;;6141064;23;20191;-90
2023/12/16 04:41:44;;;;;;;2.33;2.17;;;4.80;99.90;;;;;;6165315;22;20169;-88
2023/12/16 04:44:12;;;;;;;2.72;2.60;;;5.00;99.90;;;;;;6164463;23;20233;-87
2023/12/16 04:46:39;;;;;;;2.88;1.80;;;4.90;99.90;;;;;;6245545;22;20177;-88
2023/12/16 04:49:06;;;;;;;2.80;2.60;;;5.00;99.90;;;;;;6173096;22;20170;-84
2023/12/16 04:51:33;;;;;;;1.40;1.30;;;4.90;99.90;;;;;;6175394;22;20166;-87
2023/12/16 04:54:01;;;;;;;0.65;0.65;;;4.90;99.90;;;;;;6173653;22;20205;-90
2023/12/16 04:56:28;;;;;;;4.47;2.08;;;4.80;99.90;;;;;;6172016;23;20177;-89
2023/12/16 04:58:56;;;;;;;4.20;3.88;;;5.00;99.90;;;;;;6270533;22;20231;-86
2023/12/16 05:01:23;;;;;;;2.00;1.90;;;4.80;99.90;;;;;;6166406;22;20188;-88
2023/12/16 05:03:51;;;;;;;1.83;1.73;;;4.90;99.90;;;;;;6268596;22;20192;-87
2023/12/16 05:06:18;;;;;;;2.05;1.95;;;4.90;99.90;;;;;;6172044;22;20184;-85
2023/12/16 05:08:46;;;;;;;1.33;1.25;;;5.10;99.90;;;;;;6270784;22;20188;-87
2023/12/16 05:11:13;;;;;;;1.92;1.77;;;5.00;99.90;;;;;;6168144;22;20182;-84
2023/12/16 05:13:42;;;;;;;1.83;1.73;;;5.00;99.90;;;;;;6166837;23;20191;-87
2023/12/16 05:16:10;;;;;;;1.52;1.42;;;4.80;99.90;;;;;;6264644;22;20173;-86
2023/12/16 05:18:37;;;;;;;2.78;2.58;;;4.90;99.90;;;;;;6268024;22;20213;-87
2023/12/16 05:21:04;;;;;;;4.57;3.03;;;4.90;99.90;;;;;;6268304;22;20189;-86
2023/12/16 05:23:31;;;;;;;1.17;1.13;;;4.90;99.90;;;;;;6269052;22;20170;-86
2023/12/16 05:25:59;;;;;;;3.00;1.77;;;5.00;99.90;;;;;;6220830;22;20212;-89
2023/12/16 05:28:26;;;;;;;4.28;2.45;;;5.00;99.90;;;;;;6169483;22;20189;-88
2023/12/16 05:30:53;;;;;;;3.92;3.63;;;5.10;99.90;;;;;;6173570;22;20186;-86
2023/12/16 05:33:22;;;;;;;1.88;1.80;;;5.00;99.90;;;;;;6149049;22;20180;-88
2023/12/16 05:35:49;;;;;;;2.20;2.10;;;5.20;99.90;;;;;;6164970;23;20240;-88
2023/12/16 05:38:16;;;;;;;1.48;1.48;;;5.10;99.90;;;;;;6162330;23;20393;-88
2023/12/16 05:40:43;;;;;;;1.75;1.65;;;5.00;99.90;;;;;;6140206;23;20180;-88
2023/12/16 05:43:11;;;;;;;3.47;3.28;;;5.10;99.90;;;;;;6140934;23;20212;-86
2023/12/16 05:45:38;;;;;;;1.63;1.20;;;5.10;99.90;;;;;;6138465;23;20183;-88
2023/12/16 05:48:05;;;;;;;1.67;1.58;;;5.00;99.90;;;;;;6141264;23;20397;-85
2023/12/16 05:50:35;;;;;;;1.65;1.55;;;5.00;99.90;;;;;;6133900;23;20246;-88
2023/12/16 05:53:02;;;;;;;3.45;3.25;;;5.10;99.90;;;;;;6146247;22;21334;-86
2023/12/16 05:55:30;;;;;;;1.92;1.83;;;5.10;99.90;;;;;;6151736;22;20215;-92
2023/12/16 05:57:57;;;;;;;0.90;0.90;;;5.10;99.90;;;;;;6131346;22;20486;-86
2023/12/16 06:05:41;;;;;;;3.53;3.33;;;5.00;99.90;;;;;;6182953;22;20246;-81
2023/12/16 06:08:08;;;;;;;1.60;1.50;;;5.00;99.90;;;;;;6136005;23;20190;-88
2023/12/16 06:10:35;;;;;;;1.75;1.73;;;5.10;99.90;;;;;;6138970;23;20181;-90
2023/12/16 06:13:02;;;;;;;3.97;3.67;;;5.20;99.90;;;;;;6137020;23;20181;-89
2023/12/16 06:18:16;;;;;;;1.80;1.70;;;5.10;99.90;;;;;;6148749;22;20212;-90
2023/12/16 06:20:44;;;;;;;0.70;0.70;;;5.10;99.90;;;;;;6167336;22;20198;-89
2023/12/16 06:23:11;;;;;;;2.30;2.20;;;5.00;99.90;;;;;;6163220;23;20225;-88
2023/12/16 06:25:40;;;;;;;3.00;2.80;;;5.10;99.90;;;;;;6160360;23;20504;-84
2023/12/16 06:28:07;;;;;;;3.17;2.97;;;5.00;99.90;;;;;;6182147;22;20206;-87
2023/12/16 06:30:35;;;;;;;2.40;2.25;;;5.00;99.90;;;;;;6319096;22;20182;-88
2023/12/16 06:33:05;;;;;;;1.73;1.63;;;5.00;99.90;;;;;;6223137;22;20205;-88
2023/12/16 06:35:32;;;;;;;1.13;1.13;;;5.00;99.90;;;;;;6168307;22;20186;-87
2023/12/16 06:38:00;;;;;;;1.67;1.58;;;5.10;99.90;;;;;;6164588;22;20639;-85
2023/12/16 06:40:31;;;;;;;3.03;1.77;;;5.10;99.90;;;;;;6162787;23;20197;-87
2023/12/16 06:42:59;;;;;;;3.83;3.63;;;5.10;99.90;;;;;;6163526;23;20189;-88
2023/12/16 06:45:26;;;;;;;2.30;2.20;;;5.10;99.90;;;;;;6166765;23;20177;-88
2023/12/16 06:47:53;;;;;;;2.63;2.53;;;5.10;99.90;;;;;;6138506;23;20188;-86
2023/12/16 06:50:20;;;;;;;2.40;2.25;;;4.90;99.90;;;;;;6170697;23;20195;-86
2023/12/16 06:52:47;;;;;;;0.60;0.60;;;5.10;99.90;;;;;;6169292;22;20375;-87
2023/12/16 06:57:50;;;;;;;1.67;1.58;;;5.10;99.90;;;;;;6255710;22;20212;-86
2023/12/16 07:00:17;;;;;;;0.70;0.70;;;5.10;99.90;;;;;;6319562;22;20182;-87
2023/12/16 07:02:44;;;;;;;2.80;2.70;;;5.10;99.90;;;;;;6318287;22;20170;-86
2023/12/16 07:05:11;;;;;;;3.75;3.42;;;5.10;99.90;;;;;;6319423;22;20190;-85
2023/12/16 07:07:38;;;;;;;32.90;4.70;;;5.10;99.90;;;;;;6292151;22;20170;-84
2023/12/16 07:10:07;;;;;;;0.70;0.70;;;5.30;99.90;;;;;;6293162;22;20233;-85
2023/12/16 07:12:34;;;;;;;0.65;0.65;;;5.10;99.90;;;;;;6318243;22;20180;-88
2023/12/16 07:15:04;;;;;;;0.70;0.65;;;5.10;99.90;;;;;;6317807;22;20166;-85
2023/12/16 07:17:33;;;;;;;1.73;1.63;;;5.10;99.90;;;;;;6312551;22;20224;-88
2023/12/16 07:20:01;;;;;;;4.20;1.55;;;5.30;99.90;;;;;;6319862;22;20193;-84
2023/12/16 07:22:42;;;;;;;0.40;0.40;;;5.10;99.90;;;;;;6292590;22;20204;-84
2023/12/16 07:25:10;;;;;;;2.13;2.03;;;5.10;99.90;;;;;;6315695;22;20402;-86
2023/12/16 07:27:37;;;;;;;3.22;1.80;;;5.10;99.90;;;;;;6315831;22;20173;-84
2023/12/16 07:30:05;;;;;;;4.15;3.85;;;5.20;99.90;;;;;;6288444;22;20189;-86
2023/12/16 07:32:32;;;;;;;2.67;2.47;;;5.10;99.90;;;;;;6287969;22;20238;-86
2023/12/16 07:35:02;;;;;;;3.55;1.92;;;5.20;99.90;;;;;;6288025;22;20201;-85
2023/12/16 07:37:29;;;;;;;0.60;0.60;;;5.20;99.90;;;;;;6316360;22;20475;-87
2023/12/16 07:39:57;;;;;;;4.45;3.47;;;5.20;99.90;;;;;;6288316;22;20221;-86
2023/12/16 07:42:25;;;;;;;1.80;1.70;;;5.30;99.90;;;;;;6288524;22;20181;-87
2023/12/16 07:44:51;;;;;;;1.52;1.52;;;5.40;99.90;;;;;;6294514;22;20178;-86
2023/12/16 07:47:18;;;;;;;2.22;1.98;;;5.30;99.90;;;;;;6292994;22;20498;-88
2023/12/16 07:49:46;;;;;;;5.00;3.88;;;5.30;99.90;;;;;;6291002;22;20189;-86
2023/12/16 07:52:15;;;;;;;0.93;0.60;;;5.30;99.90;;;;;;6295988;22;20217;-88
2023/12/16 07:54:45;;;;;;;2.13;1.60;;;5.40;99.90;;;;;;6307162;22;20166;-84
2023/12/16 07:57:12;;;;;;;2.78;2.55;;;5.50;99.90;;;;;;6307515;22;20174;-89
2023/12/16 07:59:42;;;;;;;0.68;0.68;;;5.60;99.90;;;;;;6305927;22;20212;-90
2023/12/16 08:02:10;;;;;;;2.25;2.05;;;5.50;99.90;;;;;;6294217;22;20189;-86
2023/12/16 08:04:38;;;;;;;0.68;0.68;;;5.70;99.90;;;;;;6316734;22;20368;-83
2023/12/16 08:07:05;;;;;;;7.32;2.17;;;5.60;99.90;;;;;;6316050;22;20233;-85
2023/12/16 08:09:33;;;;;;;2.53;2.42;;;5.60;99.90;;;;;;6289408;22;20200;-86
2023/12/16 08:12:00;;;;;;;2.70;2.30;;;5.50;99.90;;;;;;6289198;22;20431;-88
2023/12/16 08:14:28;;;;;;;2.25;2.10;;;5.60;99.90;;;;;;6294346;22;20189;-84
2023/12/16 08:16:55;;;;;;;0.52;0.52;;;5.60;99.90;;;;;;6291472;22;20177;-86
2023/12/16 08:19:23;;;;;;;1.88;1.75;;;5.70;99.90;;;;;;6305638;22;20194;-88
2023/12/16 08:21:50;;;;;;;1.15;1.15;;;5.70;99.90;;;;;;6307458;22;20170;-89
2023/12/16 08:24:17;;;;;;;1.65;1.55;;;5.70;99.90;;;;;;6327768;22;20235;-86
2023/12/16 08:26:48;;;;;;;0.65;0.65;;;5.80;99.90;;;;;;6292648;22;20179;-86
2023/12/16 08:29:18;;;;;;;3.63;3.40;;;5.70;99.90;;;;;;6289769;22;20178;-88
2023/12/16 08:31:46;;;;;;;1.55;1.55;;;5.80;99.90;;;;;;6317055;22;20519;-86
2023/12/16 08:34:14;;;;;;;1.67;1.58;;;5.70;99.90;;;;;;6291636;22;20174;-86
2023/12/16 08:36:41;;;;;;;0.93;0.93;;;5.70;99.90;;;;;;6290523;22;20189;-88
2023/12/16 08:39:08;;;;;;;3.65;1.50;;;5.70;99.90;;;;;;6316746;22;20272;-86
2023/12/16 08:41:36;;;;;;;1.92;1.83;;;5.70;99.90;;;;;;6316587;22;20175;-87
2023/12/16 08:44:03;;;;;;;1.88;1.77;;;5.80;99.90;;;;;;6291368;22;20166;-86
2023/12/16 08:46:30;;;;;;;1.30;1.30;;;5.80;99.90;;;;;;6287464;22;20189;-85
2023/12/16 08:48:58;;;;;;;1.40;1.30;;;5.70;99.90;;;;;;6316609;22;20177;-89
2023/12/16 08:51:25;;;;;;;1.27;1.25;;;5.80;99.90;;;;;;6290475;22;20351;-88
2023/12/16 08:53:53;;;;;;;0.75;0.75;;;5.90;99.90;;;;;;6301036;22;20197;-88
2023/12/16 08:56:20;;;;;;;1.55;1.48;;;6.00;99.90;;;;;;6331277;22;20189;-87
2023/12/16 08:58:47;;;;;;;3.35;3.08;;;6.10;99.90;;;;;;6303185;22;20204;-85
2023/12/16 09:01:14;;;;;;;0.68;0.68;;;6.20;99.90;;;;;;6304319;22;20190;-88
2023/12/16 09:03:44;;;;;;;0.40;0.40;;;6.00;99.90;;;;;;6334002;22;20158;-86
2023/12/16 09:06:14;;;;;;;0.40;0.40;;;6.00;99.90;;;;;;6328641;22;20205;-86
2023/12/16 09:08:42;;;;;;;1.45;1.45;;;6.00;99.90;;;;;;6308459;22;20159;-84
2023/12/16 09:11:11;;;;;;;1.40;1.40;;;6.10;99.90;;;;;;6334168;22;20178;-86
2023/12/16 09:13:38;;;;;;;3.47;3.28;;;6.20;99.90;;;;;;6332913;22;20174;-88
2023/12/16 09:16:05;;;;;;;2.35;2.25;;;6.20;99.90;;;;;;6331735;22;20154;-92
2023/12/16 09:18:36;;;;;;;1.08;1.08;;;6.20;99.90;;;;;;6305375;22;20207;-87
2023/12/16 09:21:04;;;;;;;2.53;2.42;;;6.20;99.90;;;;;;6303817;22;20274;-86
2023/12/16 09:23:33;;;;;;;1.42;1.42;;;6.20;99.90;;;;;;6324033;22;20177;-88
2023/12/16 09:26:00;;;;;;;1.40;1.40;;;6.10;99.90;;;;;;6320547;22;20174;-86
2023/12/16 09:28:27;;;;;;;0.40;0.40;;;6.20;99.90;;;;;;6293658;22;20185;-87
2023/12/16 09:30:56;;;;;;;2.65;2.03;;;6.20;99.90;;;;;;6290772;22;20166;-91
2023/12/16 09:33:24;;;;;;;1.90;1.80;;;6.20;99.90;;;;;;6291600;22;20274;-90
2023/12/16 09:35:51;;;;;;;0.82;0.82;;;6.20;99.90;;;;;;6292021;22;20182;-87
2023/12/16 09:38:22;;;;;;;4.05;3.75;;;6.30;99.90;;;;;;6318553;22;20291;-90
2023/12/16 09:40:52;;;;;;;2.05;1.95;;;6.30;99.90;;;;;;6293938;22;20452;-90
2023/12/16 09:43:22;;;;;;;0.40;0.40;;;6.40;99.90;;;;;;6292726;22;20177;-83
2023/12/16 09:45:50;;;;;;;0.40;0.40;;;6.50;99.90;;;;;;6294567;22;20186;-86
2023/12/16 09:48:17;;;;;;;0.80;0.80;;;6.50;99.90;;;;;;6319289;22;20188;-83
2023/12/16 09:50:45;;;;;;;0.70;0.70;;;6.60;99.90;;;;;;6316419;22;20166;-82
2023/12/16 09:53:12;;;;;;;0.40;0.40;;;6.60;99.90;;;;;;6318290;22;20280;-84
2023/12/16 09:55:40;;;;;;;0.40;0.40;;;6.70;99.90;;;;;;6290807;22;20501;-87
2023/12/16 09:58:12;;;;;;;0.80;0.80;;;6.60;99.90;;;;;;6323704;22;20189;-84
2023/12/16 10:00:46;;;;;;;0.60;0.60;;;6.60;99.90;;;;;;6319545;22;20198;-86
2023/12/16 10:03:16;;;;;;;1.15;1.15;;;6.50;99.90;;;;;;6293827;22;20163;-87
2023/12/16 10:05:45;;;;;;;0.70;0.70;;;6.80;99.90;;;;;;6291545;22;20420;-87
2023/12/16 10:08:12;;;;;;;2.60;2.40;;;6.70;99.90;;;;;;6316748;22;20178;-82
2023/12/16 10:10:40;;;;;;;7.63;2.50;;;6.70;99.90;;;;;;6318449;22;20220;-88
2023/12/16 10:13:12;;;;;;;1.30;1.20;;;6.80;99.90;;;;;;6320623;22;20163;-85
2023/12/16 10:15:40;;;;;;;2.35;2.15;;;6.80;99.90;;;;;;6299436;22;20174;-85
2023/12/16 10:18:07;;;;;;;0.40;0.40;;;6.80;99.90;;;;;;6324451;22;20170;-87
2023/12/16 10:20:34;;;;;;;1.77;1.67;;;6.90;99.90;;;;;;6326324;22;20205;-87
2023/12/16 10:23:03;;;;;;;1.30;1.30;;;7.10;99.90;;;;;;6320173;22;20528;-85
2023/12/16 10:25:31;;;;;;;0.80;0.80;;;7.30;99.90;;;;;;6320989;22;20171;-86
2023/12/16 10:28:00;;;;;;;1.38;1.33;;;7.20;99.90;;;;;;6291930;22;20254;-87
2023/12/16 10:30:31;;;;;;;0.88;0.88;;;7.30;99.90;;;;;;6293113;22;20170;-88
2023/12/16 10:33:03;;;;;;;3.25;1.85;;;7.30;99.90;;;;;;6293033;22;20146;-86
2023/12/16 10:35:31;;;;;;;0.95;0.95;;;7.40;99.90;;;;;;6321415;22;20210;-89
2023/12/16 10:37:58;;;;;;;1.65;1.48;;;7.50;99.90;;;;;;6292928;22;20170;-87
2023/12/16 10:40:27;;;;;;;1.30;1.30;;;7.50;99.90;;;;;;6295888;22;20238;-85
2023/12/16 10:42:54;;;;;;;1.00;1.00;;;7.40;99.90;;;;;;6320858;22;20175;-85
2023/12/16 10:45:21;;;;;;;2.08;1.98;;;7.40;99.90;;;;;;6294385;22;20194;-85
2023/12/16 10:47:50;;;;;;;0.50;0.50;;;7.30;99.90;;;;;;6323303;22;20424;-84
2023/12/16 10:50:20;;;;;;;0.55;0.55;;;7.30;99.90;;;;;;6322220;22;20186;-85
2023/12/16 10:52:52;;;;;;;1.75;1.65;;;7.30;99.90;;;;;;6326228;22;20167;-84
2023/12/16 10:55:29;;;;;;;0.73;0.73;;;7.30;99.90;;;;;;6296395;22;20162;-83
2023/12/16 10:58:20;;;;;;;0.93;0.93;;;7.30;99.90;;;;;;6325802;22;20170;-83
2023/12/16 11:00:51;;;;;;;0.50;0.50;;;7.30;99.90;;;;;;6309112;22;20209;-85
2023/12/16 11:03:48;;;;;;;0.50;0.50;;;7.30;99.90;;;;;;6324791;22;20502;-85
2023/12/16 11:06:24;;;;;;;0.50;0.50;;;7.30;99.90;;;;;;6321668;22;20176;-83
2023/12/16 11:08:52;;;;;;;1.63;1.55;;;7.40;99.90;;;;;;6326765;22;20170;-87
2023/12/16 11:11:20;;;;;;;0.40;0.40;;;7.30;99.90;;;;;;6323076;22;20193;-86
2023/12/16 11:13:50;;;;;;;0.50;0.50;;;7.40;99.90;;;;;;6295806;22;20187;-85
2023/12/16 11:16:33;;;;;;;4.90;3.50;;;7.60;99.90;;;;;;6321081;22;20213;-84
2023/12/16 11:19:02;;;;;;;2.17;2.08;;;7.60;99.90;;;;;;6322862;22;20170;-88
2023/12/16 11:21:30;;;;;;;0.50;0.50;;;7.50;99.90;;;;;;6294211;22;20253;-89
2023/12/16 11:24:01;;;;;;;1.17;1.17;;;7.60;99.90;;;;;;6320323;22;20178;-88
2023/12/16 11:26:28;;;;;;;0.90;0.90;;;7.50;99.90;;;;;;6290658;22;20208;-84
2023/12/16 11:28:55;;;;;;;3.15;2.65;;;7.60;99.90;;;;;;6315799;22;20180;-82
2023/12/16 11:31:22;;;;;;;1.30;1.20;;;7.60;99.90;;;;;;6321537;22;20189;-87
2023/12/16 11:33:50;;;;;;;0.50;0.50;;;7.60;99.90;;;;;;6317451;22;20178;-83
2023/12/16 11:36:19;;;;;;;0.60;0.60;;;7.60;99.90;;;;;;6317169;22;20178;-86
2023/12/16 11:38:47;;;;;;;1.45;1.45;;;7.70;99.90;;;;;;6320720;22;20195;-83
2023/12/16 11:41:49;;;;;;;1.27;1.17;;;8.00;99.90;;;;;;6291278;22;20202;-85
2023/12/16 11:44:16;;;;;;;1.95;1.85;;;7.80;99.90;;;;;;6274916;22;20408;-88
2023/12/16 11:46:44;;;;;;;0.40;0.40;;;7.80;99.90;;;;;;6280356;22;20201;-88
2023/12/16 11:49:14;;;;;;;0.65;0.65;;;7.90;99.90;;;;;;6317851;22;20209;-84
2023/12/16 11:51:42;;;;;;;0.73;0.73;;;7.60;99.90;;;;;;6317930;22;20622;-87
2023/12/16 11:54:12;;;;;;;0.40;0.40;;;7.50;99.90;;;;;;6319637;22;20200;-88
2023/12/16 11:56:39;;;;;;;0.50;0.50;;;7.40;99.90;;;;;;6293961;22;20158;-87
2023/12/16 11:59:08;;;;;;;0.68;0.68;;;7.30;99.90;;;;;;6316885;22;20177;-85
2023/12/16 12:01:35;;;;;;;0.40;0.40;;;7.30;99.90;;;;;;6319381;22;20253;-87
2023/12/16 12:04:04;;;;;;;0.47;0.47;;;7.30;99.90;;;;;;6317057;22;20178;-87
2023/12/16 12:06:32;;;;;;;0.75;0.75;;;7.40;99.90;;;;;;6319799;22;20163;-84
2023/12/16 12:08:59;;;;;;;0.68;0.68;;;7.50;99.90;;;;;;6292552;22;20205;-86
2023/12/16 12:11:27;;;;;;;1.05;1.05;;;7.40;99.90;;;;;;6294285;22;20212;-85
2023/12/16 12:13:55;;;;;;;1.90;1.80;;;7.40;99.90;;;;;;6293585;22;20185;-85
2023/12/16 12:16:23;;;;;;;1.50;1.40;;;7.40;99.90;;;;;;6321553;22;20212;-86
2023/12/16 12:18:51;;;;;;;0.50;0.50;;;7.30;99.90;;;;;;6301550;22;20545;-86
2023/12/16 12:21:18;;;;;;;0.93;0.93;;;7.30;99.90;;;;;;6322104;22;20216;-81
2023/12/16 12:23:45;;;;;;;0.80;0.80;;;7.20;99.90;;;;;;6295035;22;20167;-85
2023/12/16 12:26:12;;;;;;;3.05;2.80;;;7.10;99.90;;;;;;6329151;22;20234;-85
2023/12/16 12:28:40;;;;;;;0.60;0.60;;;7.20;99.90;;;;;;6327749;22;20170;-86
2023/12/16 12:31:08;;;;;;;0.63;0.63;;;7.10;99.90;;;;;;6328173;22;20186;-88
2023/12/16 12:33:36;;;;;;;0.73;0.73;;;7.00;99.90;;;;;;6299957;22;20182;-83
2023/12/16 12:36:04;;;;;;;0.50;0.50;;;7.10;99.90;;;;;;6292402;22;20182;-87
2023/12/16 12:38:33;;;;;;;0.63;0.63;;;7.10;99.90;;;;;;6316435;22;20182;-85
2023/12/16 12:41:03;;;;;;;0.40;0.40;;;7.20;99.90;;;;;;6318055;22;20252;-85
2023/12/16 12:43:33;;;;;;;0.60;0.60;;;7.20;99.90;;;;;;6320667;22;20230;-85
2023/12/16 12:46:08;;;;;;;0.60;0.60;;;7.30;99.90;;;;;;6293238;22;20376;-85
2023/12/16 12:48:39;;;;;;;1.67;1.60;;;7.30;99.90;;;;;;6292188;22;20171;-87
2023/12/16 12:51:09;;;;;;;0.50;0.50;;;7.20;99.90;;;;;;6319734;22;20162;-84
2023/12/16 12:53:36;;;;;;;0.40;0.40;;;7.30;99.90;;;;;;6319173;22;20175;-85
2023/12/16 12:56:04;;;;;;;0.50;0.50;;;7.40;99.90;;;;;;6319087;22;20470;-85
2023/12/16 12:58:34;;;;;;;0.60;0.60;;;7.50;99.90;;;;;;6319482;22;20174;-87
2023/12/16 13:01:05;;;;;;;0.80;0.80;;;7.50;99.90;;;;;;6294442;22;20391;-84
2023/12/16 13:03:33;;;;;;;1.25;0.70;;;7.50;99.90;;;;;;6313980;22;20185;-87
2023/12/16 13:06:03;;;;;;;0.70;0.70;;;7.50;99.90;;;;;;6321212;22;20163;-87
2023/12/16 13:08:35;;;;;;;1.85;1.42;;;7.50;99.90;;;;;;6321232;22;20159;-86
2023/12/16 13:11:03;;;;;;;0.60;0.60;;;7.60;99.90;;;;;;6319213;22;20217;-84
2023/12/16 13:13:30;;;;;;;0.75;0.75;;;7.40;99.90;;;;;;6317742;22;20189;-85
2023/12/16 13:15:57;;;;;;;0.50;0.50;;;7.60;99.90;;;;;;6321910;22;20162;-84
2023/12/16 13:18:25;;;;;;;0.90;0.90;;;7.50;99.90;;;;;;6291587;22;20205;-85
2023/12/16 13:20:55;;;;;;;0.85;0.85;;;7.50;99.90;;;;;;6319975;22;20222;-85
2023/12/16 13:23:22;;;;;;;7.63;2.78;;;7.40;99.90;;;;;;6318102;22;20185;-83
2023/12/16 13:25:49;;;;;;;0.40;0.40;;;7.40;99.90;;;;;;6317987;22;20178;-84
2023/12/16 13:28:17;;;;;;;1.40;1.30;;;7.40;99.90;;;;;;6319325;22;20171;-84
2023/12/16 13:30:45;;;;;;;0.40;0.40;;;7.40;99.90;;;;;;6316649;22;20174;-85
2023/12/16 13:33:12;;;;;;;0.60;0.60;;;7.40;99.90;;;;;;6320740;22;20223;-84
2023/12/16 13:35:39;;;;;;;0.70;0.60;;;7.40;99.90;;;;;;6330537;22;20336;-84
2023/12/16 13:38:06;;;;;;;0.40;0.40;;;7.30;99.90;;;;;;6323086;22;20492;-86